KHEY/HEY METAR and TAF weather

Enter ICAO airport designator
Station Type Date Time Source
KHEY METAR 2022/11/30 11:34 UTC NOAA

KHEY 301134Z AUTO 21004KT 10SM -RA OVC008 21/21 A2994 RMK AO2 LTG DSNT W-NE RAB34 SLP138


Station Type Date Time Source
KHEY Decoded METAR 2022/11/30 11:34 UTC NOAA

Hanchey AHP / Ozark, AL, United States (KHEY) 31-21N 085-40W
Nov 30, 2022 - 06:34 AM EST / 2022.11.30 1134 UTC
Wind: from the SSW (210 degrees) at 5 MPH (4 KT):0
Visibility: 10 mile(s):0
Sky conditions: overcast
Weather: light rain; Lightning observed
Temperature: 69 F (21 C)
Dew Point: 69 F (21 C)
Relative Humidity: 100%
Pressure (altimeter): 29.94 in. Hg (1013 hPa)
ob: KHEY 301134Z AUTO 21004KT 10SM -RA OVC008 21/21 A2994 RMK AO2 LTG DSNT W-NE RAB34 SLP138
cycle: 11

Station Type Date Time Source
KHEY TAF UTC NOAA

Error!

Example: see airport list